KLM95U EHAM-ELLX
Flight info
| Callsign | KLM95U |
|---|---|
| Flight time | 0h 46m |
| Altitude | 27000 |
| Route | LOPIK N852 LNO |
| Aircraft | E190/M-SDE3GILORVW/S |
Departure
| Time | 2026-05-04 13:06 |
|---|---|
| Airport | Amsterdam Airport Schiphol (EHAM) |
Arrival
| Time | 2026-05-04 13:53 |
|---|---|
| Airport | Luxembourg-Findel International Airport (ELLX) |
| Time | Latitude | Longitude | Altitude | Speed | Heading |
|---|---|---|---|---|---|
| 2026-05-04 12:36 | 52.30313 | 4.76063 | -2 ft | 0 kts | 238° |
| 2026-05-04 12:56 | 52.30321 | 4.76086 | -3 ft | 4 kts | 236° |
| 2026-05-04 12:57 | 52.30333 | 4.76108 | -3 ft | 2 kts | 212° |
| 2026-05-04 12:57 | 52.30343 | 4.76113 | -2 ft | 2 kts | 165° |
| 2026-05-04 12:57 | 52.30353 | 4.76107 | -2 ft | 2 kts | 149° |
| 2026-05-04 12:57 | 52.30362 | 4.76098 | -2 ft | 2 kts | 147° |
| 2026-05-04 12:58 | 52.30365 | 4.76096 | -2 ft | 0 kts | 148° |
| 2026-05-04 12:59 | 52.30363 | 4.76098 | -2 ft | 2 kts | 147° |
| 2026-05-04 13:00 | 52.30343 | 4.76118 | -2 ft | 5 kts | 151° |
| 2026-05-04 13:00 | 52.30282 | 4.76177 | -2 ft | 17 kts | 147° |
| 2026-05-04 13:00 | 52.30171 | 4.76269 | -2 ft | 17 kts | 174° |
| 2026-05-04 13:00 | 52.30145 | 4.76388 | -2 ft | 13 kts | 63° |
| 2026-05-04 13:01 | 52.30202 | 4.76536 | -2 ft | 18 kts | 57° |
| 2026-05-04 13:01 | 52.30278 | 4.76736 | -2 ft | 22 kts | 58° |
| 2026-05-04 13:01 | 52.30363 | 4.76957 | -2 ft | 24 kts | 58° |
| 2026-05-04 13:01 | 52.30435 | 4.77178 | -2 ft | 17 kts | 96° |
| 2026-05-04 13:02 | 52.30393 | 4.77253 | -3 ft | 0 kts | 129° |
| 2026-05-04 13:04 | 52.30391 | 4.77257 | -3 ft | 2 kts | 129° |
| 2026-05-04 13:04 | 52.30354 | 4.77346 | -4 ft | 15 kts | 135° |
| 2026-05-04 13:04 | 52.30299 | 4.77336 | -5 ft | 2 kts | 236° |
| 2026-05-04 13:04 | 52.30299 | 4.77335 | -5 ft | 0 kts | 236° |
| 2026-05-04 13:05 | 52.30291 | 4.77315 | -5 ft | 5 kts | 238° |
| 2026-05-04 13:05 | 52.30099 | 4.76816 | -3 ft | 82 kts | 238° |
| 2026-05-04 13:06 | 52.29859 | 4.76191 | -5 ft | 110 kts | 237° |
| 2026-05-04 13:06 | 52.29392 | 4.74967 | 2 ft | 141 kts | 240° |
| 2026-05-04 13:06 | 52.28867 | 4.73594 | 373 ft | 147 kts | 240° |
| 2026-05-04 13:06 | 52.28325 | 4.72161 | 831 ft | 146 kts | 242° |
| 2026-05-04 13:07 | 52.27726 | 4.70686 | 1323 ft | 163 kts | 225° |
| 2026-05-04 13:07 | 52.26596 | 4.70137 | 1840 ft | 188 kts | 173° |
| 2026-05-04 13:07 | 52.25372 | 4.71136 | 2361 ft | 215 kts | 139° |
| 2026-05-04 13:07 | 52.24188 | 4.72863 | 2913 ft | 240 kts | 140° |
| 2026-05-04 13:08 | 52.23502 | 4.73777 | 3263 ft | 250 kts | 144° |
| 2026-05-04 13:08 | 52.22089 | 4.75578 | 4040 ft | 263 kts | 136° |
| 2026-05-04 13:08 | 52.20846 | 4.77797 | 5063 ft | 267 kts | 131° |
| 2026-05-04 13:09 | 52.19684 | 4.80185 | 6017 ft | 272 kts | 126° |
| 2026-05-04 13:09 | 52.18687 | 4.82829 | 6898 ft | 276 kts | 121° |
| 2026-05-04 13:09 | 52.17713 | 4.85559 | 7741 ft | 279 kts | 121° |
| 2026-05-04 13:09 | 52.16660 | 4.88237 | 8538 ft | 282 kts | 131° |
| 2026-05-04 13:10 | 52.15267 | 4.90501 | 9364 ft | 284 kts | 140° |
| 2026-05-04 13:10 | 52.13751 | 4.92531 | 10169 ft | 288 kts | 143° |
| 2026-05-04 13:10 | 52.12142 | 4.94507 | 10940 ft | 292 kts | 145° |
| 2026-05-04 13:10 | 52.10478 | 4.96454 | 11711 ft | 296 kts | 147° |
| 2026-05-04 13:11 | 52.08711 | 4.98215 | 12490 ft | 300 kts | 151° |
| 2026-05-04 13:11 | 52.06896 | 4.99947 | 13283 ft | 304 kts | 151° |
| 2026-05-04 13:11 | 52.05055 | 5.01687 | 14048 ft | 308 kts | 152° |
| 2026-05-04 13:11 | 52.03190 | 5.03438 | 14779 ft | 311 kts | 152° |
| 2026-05-04 13:12 | 52.01306 | 5.05211 | 15506 ft | 314 kts | 152° |
| 2026-05-04 13:12 | 51.99402 | 5.06997 | 16240 ft | 318 kts | 152° |
| 2026-05-04 13:12 | 51.97482 | 5.08797 | 16963 ft | 321 kts | 152° |
| 2026-05-04 13:12 | 51.95506 | 5.10514 | 17689 ft | 324 kts | 156° |
| 2026-05-04 13:13 | 51.93432 | 5.11974 | 18411 ft | 327 kts | 160° |
| 2026-05-04 13:13 | 51.91309 | 5.13336 | 19112 ft | 329 kts | 161° |
| 2026-05-04 13:13 | 51.89152 | 5.14604 | 19833 ft | 329 kts | 165° |
| 2026-05-04 13:13 | 51.86972 | 5.15617 | 20543 ft | 331 kts | 167° |
| 2026-05-04 13:14 | 51.84748 | 5.16625 | 21225 ft | 333 kts | 167° |
| 2026-05-04 13:14 | 51.82506 | 5.17620 | 21891 ft | 335 kts | 167° |
| 2026-05-04 13:14 | 51.80256 | 5.18617 | 22551 ft | 337 kts | 168° |
| 2026-05-04 13:14 | 51.77989 | 5.19619 | 23180 ft | 338 kts | 168° |
| 2026-05-04 13:15 | 51.75712 | 5.20625 | 23788 ft | 340 kts | 168° |
| 2026-05-04 13:15 | 51.73420 | 5.21637 | 24356 ft | 342 kts | 168° |
| 2026-05-04 13:15 | 51.71121 | 5.22650 | 24927 ft | 343 kts | 168° |
| 2026-05-04 13:15 | 51.68813 | 5.23667 | 25484 ft | 345 kts | 168° |
| 2026-05-04 13:16 | 51.66489 | 5.24691 | 26046 ft | 347 kts | 169° |
| 2026-05-04 13:16 | 51.64154 | 5.25717 | 26569 ft | 348 kts | 169° |
| 2026-05-04 13:16 | 51.61836 | 5.26739 | 26838 ft | 336 kts | 169° |
| 2026-05-04 13:16 | 51.59635 | 5.27706 | 26890 ft | 328 kts | 169° |
| 2026-05-04 13:17 | 51.57378 | 5.28684 | 26949 ft | 343 kts | 169° |
| 2026-05-04 13:17 | 51.55043 | 5.29709 | 26979 ft | 350 kts | 169° |
| 2026-05-04 13:17 | 51.52691 | 5.30744 | 26975 ft | 350 kts | 169° |
| 2026-05-04 13:17 | 51.50351 | 5.31766 | 26962 ft | 349 kts | 169° |
| 2026-05-04 13:18 | 51.48033 | 5.32778 | 26965 ft | 349 kts | 169° |
| 2026-05-04 13:18 | 51.45687 | 5.33800 | 26971 ft | 349 kts | 169° |
| 2026-05-04 13:18 | 51.43339 | 5.34823 | 26965 ft | 349 kts | 169° |
| 2026-05-04 13:18 | 51.40989 | 5.35846 | 26963 ft | 349 kts | 168° |
| 2026-05-04 13:19 | 51.38639 | 5.36867 | 26969 ft | 349 kts | 168° |
| 2026-05-04 13:19 | 51.36324 | 5.37872 | 26970 ft | 349 kts | 168° |
| 2026-05-04 13:19 | 51.33977 | 5.38890 | 26967 ft | 349 kts | 168° |
| 2026-05-04 13:19 | 51.31636 | 5.39904 | 26970 ft | 349 kts | 168° |
| 2026-05-04 13:20 | 51.29300 | 5.40958 | 26978 ft | 349 kts | 167° |
| 2026-05-04 13:20 | 51.26953 | 5.41945 | 26998 ft | 348 kts | 171° |
| 2026-05-04 13:20 | 51.24582 | 5.42759 | 26994 ft | 348 kts | 171° |
| 2026-05-04 13:20 | 51.22218 | 5.43556 | 26995 ft | 347 kts | 172° |
| 2026-05-04 13:21 | 51.19854 | 5.44291 | 27004 ft | 347 kts | 172° |
| 2026-05-04 13:21 | 51.17498 | 5.45224 | 26997 ft | 349 kts | 168° |
| 2026-05-04 13:21 | 51.15151 | 5.46227 | 26981 ft | 348 kts | 168° |
| 2026-05-04 13:21 | 51.12812 | 5.47249 | 26977 ft | 348 kts | 168° |
| 2026-05-04 13:22 | 51.10476 | 5.48272 | 26987 ft | 348 kts | 168° |
| 2026-05-04 13:22 | 51.08140 | 5.49293 | 26992 ft | 348 kts | 168° |
| 2026-05-04 13:22 | 51.05806 | 5.50313 | 26985 ft | 348 kts | 168° |
| 2026-05-04 13:22 | 51.03468 | 5.51331 | 26987 ft | 348 kts | 168° |
| 2026-05-04 13:23 | 51.01133 | 5.52349 | 26996 ft | 348 kts | 168° |
| 2026-05-04 13:23 | 50.98824 | 5.53352 | 26992 ft | 348 kts | 168° |
| 2026-05-04 13:23 | 50.96480 | 5.54368 | 26991 ft | 355 kts | 168° |
| 2026-05-04 13:23 | 50.94073 | 5.55414 | 26994 ft | 356 kts | 168° |
| 2026-05-04 13:24 | 50.92530 | 5.56084 | 26994 ft | 365 kts | 168° |
| 2026-05-04 13:24 | 50.90035 | 5.57164 | 26992 ft | 376 kts | 168° |
| 2026-05-04 13:24 | 50.87514 | 5.58257 | 26996 ft | 376 kts | 168° |
| 2026-05-04 13:25 | 50.82503 | 5.60419 | 26987 ft | 375 kts | 168° |
| 2026-05-04 13:25 | 50.79952 | 5.61517 | 26997 ft | 375 kts | 168° |
| 2026-05-04 13:25 | 50.77441 | 5.62599 | 26990 ft | 375 kts | 168° |
| 2026-05-04 13:25 | 50.74922 | 5.63681 | 26985 ft | 374 kts | 168° |
| 2026-05-04 13:26 | 50.72408 | 5.64760 | 26992 ft | 374 kts | 168° |
| 2026-05-04 13:26 | 50.69921 | 5.65773 | 26993 ft | 375 kts | 167° |
| 2026-05-04 13:26 | 50.67421 | 5.66937 | 26997 ft | 375 kts | 167° |
| 2026-05-04 13:26 | 50.64911 | 5.68093 | 26989 ft | 375 kts | 167° |
| 2026-05-04 13:27 | 50.62414 | 5.69252 | 26991 ft | 375 kts | 167° |
| 2026-05-04 13:27 | 50.59907 | 5.70382 | 26998 ft | 375 kts | 167° |
| 2026-05-04 13:27 | 50.57436 | 5.71734 | 26990 ft | 376 kts | 163° |
| 2026-05-04 13:27 | 50.54967 | 5.73153 | 26986 ft | 377 kts | 163° |
| 2026-05-04 13:28 | 50.52509 | 5.74594 | 26993 ft | 377 kts | 163° |
| 2026-05-04 13:28 | 50.50057 | 5.76033 | 26991 ft | 377 kts | 163° |
| 2026-05-04 13:28 | 50.47599 | 5.77475 | 26986 ft | 376 kts | 163° |
| 2026-05-04 13:28 | 50.45150 | 5.78909 | 26991 ft | 377 kts | 163° |
| 2026-05-04 13:29 | 50.42691 | 5.80347 | 26996 ft | 377 kts | 163° |
| 2026-05-04 13:29 | 50.40230 | 5.81783 | 26996 ft | 377 kts | 163° |
| 2026-05-04 13:29 | 50.37803 | 5.83200 | 26978 ft | 377 kts | 163° |
| 2026-05-04 13:29 | 50.35345 | 5.84631 | 26990 ft | 377 kts | 163° |
| 2026-05-04 13:30 | 50.32885 | 5.86063 | 26994 ft | 377 kts | 163° |
| 2026-05-04 13:30 | 50.30426 | 5.87493 | 26988 ft | 377 kts | 163° |
| 2026-05-04 13:30 | 50.27961 | 5.88924 | 26994 ft | 377 kts | 163° |
| 2026-05-04 13:30 | 50.25493 | 5.90355 | 26803 ft | 380 kts | 163° |
| 2026-05-04 13:31 | 50.23024 | 5.91786 | 26306 ft | 377 kts | 163° |
| 2026-05-04 13:31 | 50.20543 | 5.93219 | 25826 ft | 384 kts | 162° |
| 2026-05-04 13:31 | 50.18035 | 5.94670 | 25347 ft | 384 kts | 162° |
| 2026-05-04 13:31 | 50.15521 | 5.96123 | 24879 ft | 382 kts | 162° |
| 2026-05-04 13:32 | 50.13044 | 5.97551 | 24422 ft | 379 kts | 162° |
| 2026-05-04 13:32 | 50.10579 | 5.98972 | 23976 ft | 377 kts | 162° |
| 2026-05-04 13:32 | 50.08121 | 6.00387 | 23513 ft | 375 kts | 162° |
| 2026-05-04 13:32 | 50.05677 | 6.01792 | 22988 ft | 372 kts | 162° |
| 2026-05-04 13:33 | 50.03193 | 6.02675 | 22478 ft | 365 kts | 180° |
| 2026-05-04 13:33 | 50.00711 | 6.02077 | 21989 ft | 360 kts | 197° |
| 2026-05-04 13:33 | 49.98388 | 6.00786 | 21530 ft | 359 kts | 201° |
| 2026-05-04 13:33 | 49.96076 | 5.99335 | 21063 ft | 357 kts | 202° |
| 2026-05-04 13:34 | 49.93798 | 5.97842 | 20604 ft | 354 kts | 202° |
| 2026-05-04 13:34 | 49.91538 | 5.96337 | 20153 ft | 352 kts | 203° |
| 2026-05-04 13:34 | 49.89290 | 5.94825 | 19719 ft | 351 kts | 203° |
| 2026-05-04 13:34 | 49.87059 | 5.93319 | 19285 ft | 348 kts | 203° |
| 2026-05-04 13:35 | 49.84840 | 5.91826 | 18883 ft | 347 kts | 203° |
| 2026-05-04 13:35 | 49.80431 | 5.88871 | 18130 ft | 344 kts | 203° |
| 2026-05-04 13:35 | 49.78239 | 5.87404 | 17661 ft | 341 kts | 203° |
| 2026-05-04 13:36 | 49.76070 | 5.85952 | 17203 ft | 339 kts | 203° |
| 2026-05-04 13:36 | 49.73932 | 5.84524 | 16742 ft | 337 kts | 203° |
| 2026-05-04 13:36 | 49.71785 | 5.83093 | 16301 ft | 335 kts | 203° |
| 2026-05-04 13:36 | 49.69648 | 5.81669 | 15860 ft | 333 kts | 203° |
| 2026-05-04 13:37 | 49.67507 | 5.80325 | 15425 ft | 331 kts | 196° |
| 2026-05-04 13:37 | 49.65231 | 5.80049 | 15143 ft | 330 kts | 176° |
| 2026-05-04 13:37 | 49.62953 | 5.80506 | 15113 ft | 331 kts | 172° |
| 2026-05-04 13:37 | 49.61443 | 5.80894 | 15127 ft | 332 kts | 172° |
| 2026-05-04 13:38 | 49.58401 | 5.81747 | 15113 ft | 333 kts | 171° |
| 2026-05-04 13:38 | 49.56124 | 5.82415 | 15060 ft | 333 kts | 171° |
| 2026-05-04 13:38 | 49.53842 | 5.83097 | 14624 ft | 332 kts | 171° |
| 2026-05-04 13:38 | 49.51609 | 5.83922 | 14209 ft | 330 kts | 161° |
| 2026-05-04 13:39 | 49.49694 | 5.85870 | 13768 ft | 335 kts | 136° |
| 2026-05-04 13:39 | 49.48475 | 5.88920 | 13276 ft | 341 kts | 112° |
| 2026-05-04 13:39 | 49.48094 | 5.92527 | 12787 ft | 343 kts | 96° |
| 2026-05-04 13:39 | 49.48026 | 5.96140 | 12316 ft | 341 kts | 94° |
| 2026-05-04 13:40 | 49.48027 | 5.99791 | 11843 ft | 339 kts | 93° |
| 2026-05-04 13:40 | 49.48046 | 6.02430 | 11483 ft | 338 kts | 92° |
| 2026-05-04 13:40 | 49.48075 | 6.05166 | 11117 ft | 327 kts | 92° |
| 2026-05-04 13:40 | 49.48120 | 6.08585 | 10646 ft | 312 kts | 92° |
| 2026-05-04 13:41 | 49.48180 | 6.11854 | 10215 ft | 302 kts | 92° |
| 2026-05-04 13:41 | 49.48251 | 6.15023 | 10053 ft | 295 kts | 90° |
| 2026-05-04 13:41 | 49.48803 | 6.18108 | 9944 ft | 305 kts | 68° |
| 2026-05-04 13:42 | 49.50814 | 6.23895 | 9278 ft | 304 kts | 63° |
| 2026-05-04 13:42 | 49.51870 | 6.26707 | 8843 ft | 302 kts | 63° |
| 2026-05-04 13:42 | 49.52916 | 6.29445 | 8514 ft | 299 kts | 62° |
| 2026-05-04 13:42 | 49.54179 | 6.32040 | 8258 ft | 305 kts | 44° |
| 2026-05-04 13:43 | 49.56005 | 6.33606 | 7933 ft | 306 kts | 16° |
| 2026-05-04 13:43 | 49.58105 | 6.33822 | 7566 ft | 303 kts | 348° |
| 2026-05-04 13:43 | 49.60021 | 6.32625 | 7195 ft | 294 kts | 319° |
| 2026-05-04 13:43 | 49.61299 | 6.30303 | 7105 ft | 280 kts | 291° |
| 2026-05-04 13:44 | 49.62062 | 6.27521 | 7049 ft | 283 kts | 285° |
| 2026-05-04 13:44 | 49.62729 | 6.24673 | 6702 ft | 281 kts | 284° |
| 2026-05-04 13:44 | 49.63356 | 6.21859 | 6329 ft | 276 kts | 283° |
| 2026-05-04 13:44 | 49.63965 | 6.19066 | 5962 ft | 272 kts | 282° |
| 2026-05-04 13:45 | 49.64290 | 6.16245 | 5630 ft | 265 kts | 267° |
| 2026-05-04 13:45 | 49.64315 | 6.13415 | 5345 ft | 263 kts | 264° |
| 2026-05-04 13:45 | 49.64276 | 6.10603 | 5068 ft | 260 kts | 263° |
| 2026-05-04 13:45 | 49.64211 | 6.07844 | 4827 ft | 260 kts | 263° |
| 2026-05-04 13:46 | 49.64129 | 6.05068 | 4525 ft | 259 kts | 263° |
| 2026-05-04 13:46 | 49.64034 | 6.02302 | 4193 ft | 259 kts | 263° |
| 2026-05-04 13:46 | 49.63929 | 5.99596 | 3873 ft | 245 kts | 263° |
| 2026-05-04 13:46 | 49.63823 | 5.97042 | 3563 ft | 232 kts | 263° |
| 2026-05-04 13:47 | 49.63457 | 5.94709 | 3259 ft | 220 kts | 235° |
| 2026-05-04 13:47 | 49.62356 | 5.93267 | 3069 ft | 206 kts | 200° |
| 2026-05-04 13:47 | 49.60984 | 5.92568 | 3043 ft | 207 kts | 195° |
| 2026-05-04 13:47 | 49.59607 | 5.91992 | 3060 ft | 198 kts | 193° |
| 2026-05-04 13:48 | 49.58325 | 5.91490 | 3028 ft | 184 kts | 193° |
| 2026-05-04 13:48 | 49.57106 | 5.91221 | 2997 ft | 175 kts | 170° |
| 2026-05-04 13:48 | 49.56112 | 5.92228 | 2997 ft | 178 kts | 124° |
| 2026-05-04 13:48 | 49.55823 | 5.94114 | 3033 ft | 186 kts | 98° |
| 2026-05-04 13:49 | 49.55724 | 5.96104 | 3038 ft | 185 kts | 98° |
| 2026-05-04 13:49 | 49.55627 | 5.98065 | 3009 ft | 183 kts | 98° |
| 2026-05-04 13:49 | 49.55529 | 6.00035 | 2993 ft | 186 kts | 98° |
| 2026-05-04 13:49 | 49.55607 | 6.02000 | 2986 ft | 191 kts | 75° |
| 2026-05-04 13:50 | 49.56248 | 6.03796 | 3004 ft | 185 kts | 60° |
| 2026-05-04 13:50 | 49.56842 | 6.05438 | 2984 ft | 169 kts | 68° |
| 2026-05-04 13:50 | 49.57406 | 6.07051 | 2925 ft | 176 kts | 62° |
| 2026-05-04 13:50 | 49.58027 | 6.08655 | 2700 ft | 172 kts | 64° |
| 2026-05-04 13:51 | 49.58607 | 6.10256 | 2489 ft | 169 kts | 64° |
| 2026-05-04 13:51 | 49.59188 | 6.11811 | 2308 ft | 159 kts | 63° |
| 2026-05-04 13:51 | 49.59687 | 6.13146 | 2125 ft | 134 kts | 65° |
| 2026-05-04 13:51 | 49.60137 | 6.14388 | 1888 ft | 128 kts | 64° |
| 2026-05-04 13:52 | 49.60851 | 6.16328 | 1643 ft | 124 kts | 63° |
| 2026-05-04 13:52 | 49.61280 | 6.17489 | 1432 ft | 123 kts | 62° |
| 2026-05-04 13:52 | 49.61703 | 6.18618 | 1242 ft | 120 kts | 63° |
| 2026-05-04 13:53 | 49.62091 | 6.19671 | 1175 ft | 97 kts | 59° |
| 2026-05-04 13:53 | 49.62353 | 6.20372 | 1187 ft | 60 kts | 60° |
| 2026-05-04 13:53 | 49.62516 | 6.20606 | 1190 ft | 21 kts | 21° |
| 2026-05-04 13:54 | 49.62662 | 6.20691 | 1197 ft | 3 kts | 20° |
| 2026-05-04 13:54 | 49.62673 | 6.20697 | 1197 ft | 0 kts | 21° |
| 2026-05-04 13:54 | 49.62695 | 6.20710 | 1199 ft | 8 kts | 21° |
| 2026-05-04 13:55 | 49.62772 | 6.20755 | 1203 ft | 12 kts | 21° |
| 2026-05-04 13:55 | 49.62873 | 6.20983 | 1206 ft | 18 kts | 64° |
| 2026-05-04 13:55 | 49.62931 | 6.21167 | 1205 ft | 21 kts | 64° |
| 2026-05-04 13:56 | 49.62994 | 6.21376 | 1205 ft | 22 kts | 66° |
| 2026-05-04 13:56 | 49.63064 | 6.21600 | 1205 ft | 23 kts | 63° |
| 2026-05-04 13:56 | 49.63199 | 6.22041 | 1212 ft | 22 kts | 65° |
| 2026-05-04 13:57 | 49.63296 | 6.22080 | 1213 ft | 17 kts | 316° |
| 2026-05-04 13:57 | 49.63356 | 6.21940 | 1218 ft | 15 kts | 270° |
| 2026-05-04 13:58 | 49.63382 | 6.21791 | 1222 ft | 0 kts | 327° |